Stations météo

réclame
Mon MeteoGroup
Malaga,Puerto, Espagne (8479): Température de l'air & dewpoint: 15.01.2019 17:00:00 - 21.01.2019 17:00:00 (CET)Malaga,Puerto, Espagne (8479): Vitesse du vent & gusts: 15.01.2019 17:00:00 - 21.01.2019 17:00:00 (CET)Malaga,Puerto, Espagne (8479): Direction du vent: 15.01.2019 17:00:00 - 21.01.2019 17:00:00 (CET)Malaga,Puerto, Espagne (8479): reduced air pressure: 15.01.2019 17:00:00 - 21.01.2019 17:00:00 (CET)Malaga,Puerto, Espagne (8479): Quantités de précipitations: 15.01.2019 17:00:00 - 21.01.2019 17:00:00 (CET)
Date & Time tt [°C] td [°C] ff [km/h] ff [knt] fx [km/h] fx [knt] dd ppp [hPa] rr [mm]
21.01.2019 17:00:00 16,0 -0,6 15 8 32 18 NW 1020,1 0,0
21.01.2019 16:00:00 16,8 -0,4 14 8 32 17 NW 1019,8 0,0
21.01.2019 15:00:00 16,6 -0,6 17 9 40 22 NNW 1019,7 0,0
21.01.2019 14:00:00 16,5 -1,5 16 9 31 17 NW 1020,1 0,0
21.01.2019 13:00:00 17,7 1,3 8 4 16 8 S 1020,7 -
21.01.2019 12:00:00 16,1 0,7 11 6 18 10 S 1021,3 0,0
21.01.2019 11:00:00 15,7 1,8 5 3 11 6 SSE 1021,4 0,0
21.01.2019 10:00:00 12,6 1,6 10 5 18 10 W 1020,7 0,0
21.01.2019 09:00:00 10,6 1,2 9 5 22 12 W 1020,2 0,0
21.01.2019 08:00:00 10,5 0,8 7 4 17 9 W 1020,4 0,0
21.01.2019 07:00:00 9,7 1,1 6 3 26 14 WSW 1019,6 -
21.01.2019 06:00:00 10,5 1,4 8 4 26 14 W 1019,4 0,0
21.01.2019 05:00:00 10,2 1,8 11 6 26 14 WSW 1019,0 0,0
21.01.2019 04:00:00 10,9 1,5 10 6 20 11 WSW 1019,1 0,0
21.01.2019 03:00:00 11,7 1,7 10 5 22 12 WNW 1018,9 0,0
21.01.2019 02:00:00 10,9 2,5 14 8 18 10 SW 1019,1 0,0
21.01.2019 01:00:00 11,6 2,4 7 4 19 10 WSW 1019,1 -
21.01.2019 00:00:00 12,3 3,0 7 4 18 10 WNW 1018,6 0,0
20.01.2019 23:00:00 13,0 3,4 7 4 20 11 NW 1018,5 0,0
20.01.2019 22:00:00 13,5 3,9 8 4 17 9 NW 1018,0 0,0
20.01.2019 21:00:00 13,7 4,0 5 3 14 8 NW 1017,6 0,0
20.01.2019 20:00:00 14,1 5,5 5 3 19 10 WNW 1017,0 0,0
20.01.2019 19:00:00 - - - - - - - - -
20.01.2019 18:00:00 14,8 6,1 13 7 22 12 W 1015,2 0,0
20.01.2019 17:00:00 14,8 6,1 9 5 32 17 W 1014,9 0,0
20.01.2019 16:00:00 14,0 6,1 11 6 31 17 WSW 1014,4 0,0
20.01.2019 15:00:00 14,7 6,0 9 5 45 24 WNW 1014,0 0,0
20.01.2019 14:00:00 14,6 5,9 18 10 42 23 WNW 1013,7 0,0
20.01.2019 13:00:00 14,8 6,4 21 12 43 23 WNW 1013,8 -
20.01.2019 12:00:00 14,6 7,2 18 10 46 25 NW 1014,3 0,0
20.01.2019 11:00:00 15,0 7,6 16 9 33 18 W 1013,4 0,0
20.01.2019 10:00:00 14,1 8,9 8 5 26 14 W 1012,8 0,0
20.01.2019 09:00:00 13,3 8,2 5 3 10 5 WSW 1012,4 0,0
20.01.2019 08:00:00 13,6 7,8 4 2 8 4 W 1011,8 0,0
20.01.2019 07:00:00 13,5 7,9 2 1 15 8 WSW 1011,7 -
20.01.2019 06:00:00 12,3 9,9 6 4 10 6 WSW 1012,0 0,0
20.01.2019 05:00:00 11,8 9,7 5 3 12 7 SW 1012,5 0,0
20.01.2019 04:00:00 12,1 10,2 1 1 13 7 NNW 1012,8 0,0
20.01.2019 03:00:00 12,3 10,4 6 4 14 8 W 1013,1 0,0
20.01.2019 02:00:00 12,3 10,4 7 4 13 7 N 1013,4 0,1
20.01.2019 01:00:00 12,5 10,2 4 2 6 3 NE 1014,4 -
20.01.2019 00:00:00 12,6 9,4 6 3 9 5 NNE 1015,4 0,5
19.01.2019 23:00:00 13,3 8,4 6 4 10 6 N 1015,6 0,0
19.01.2019 22:00:00 13,7 8,5 3 2 10 6 W 1016,2 0,0
19.01.2019 21:00:00 13,5 8,1 4 2 10 6 W 1016,8 0,0
19.01.2019 20:00:00 13,9 8,1 7 4 21 11 W 1017,4 0,0
19.01.2019 19:00:00 13,8 7,6 10 5 22 12 WNW 1017,2 -
19.01.2019 18:00:00 13,8 7,1 12 7 30 16 NW 1017,3 0,0
19.01.2019 17:00:00 14,4 6,8 14 7 32 17 NW 1017,2 0,0
19.01.2019 16:00:00 14,8 7,1 10 5 22 12 WNW 1017,5 0,0
19.01.2019 15:00:00 14,7 6,8 11 6 29 15 W 1017,6 0,0
19.01.2019 14:00:00 14,6 7,4 13 7 31 17 W 1017,8 0,0
19.01.2019 13:00:00 13,5 8,4 13 7 24 13 WSW 1018,8 -
19.01.2019 12:00:00 12,1 8,8 11 6 26 14 W 1019,7 0,0
19.01.2019 11:00:00 11,7 8,6 7 4 21 11 WSW 1019,8 0,0
19.01.2019 10:00:00 10,3 7,9 10 6 17 9 NNW 1019,7 0,1
19.01.2019 09:00:00 10,9 5,7 9 5 16 9 W 1019,8 0,0
19.01.2019 08:00:00 11,4 5,5 5 3 14 7 SW 1019,3 0,0
19.01.2019 07:00:00 11,6 4,1 8 5 17 9 WSW 1019,2 -
19.01.2019 06:00:00 12,4 3,9 8 4 25 13 NW 1019,0 0,0
19.01.2019 05:00:00 12,7 3,1 11 6 24 13 NW 1019,4 0,0
19.01.2019 04:00:00 12,8 2,7 6 3 17 9 WNW 1019,7 0,0
19.01.2019 03:00:00 12,8 2,4 10 5 21 11 WNW 1019,9 0,0
19.01.2019 02:00:00 13,0 2,6 11 6 26 14 WNW 1019,9 0,0
19.01.2019 01:00:00 13,3 2,8 9 5 21 12 WNW 1020,2 -
19.01.2019 00:00:00 13,2 3,0 9 5 22 12 NW 1020,8 0,0
18.01.2019 23:00:00 13,2 2,7 9 5 19 11 WNW 1020,9 0,0
18.01.2019 22:00:00 13,2 2,5 7 4 21 11 NW 1020,3 0,0
18.01.2019 21:00:00 13,2 2,7 11 6 30 16 WNW 1020,2 0,0
18.01.2019 20:00:00 13,4 2,6 13 7 28 15 WNW 1019,6 0,0
18.01.2019 19:00:00 14,0 2,9 9 5 24 13 WNW 1019,4 -
18.01.2019 18:00:00 14,8 2,7 11 6 24 13 NW 1019,3 0,0
18.01.2019 17:00:00 15,9 3,0 11 6 23 12 W 1019,0 0,0
18.01.2019 16:00:00 16,1 5,1 9 5 22 12 W 1019,2 0,0
18.01.2019 15:00:00 15,8 5,1 9 5 18 10 W 1019,4 0,0
18.01.2019 14:00:00 15,8 5,7 9 5 16 9 SSW 1020,1 0,0
18.01.2019 13:00:00 15,2 4,6 8 4 21 11 WSW 1021,0 -
18.01.2019 12:00:00 13,6 4,2 8 4 21 11 W 1021,5 0,0
18.01.2019 11:00:00 11,8 3,6 8 4 20 11 WSW 1021,4 0,0
18.01.2019 10:00:00 10,6 3,4 11 6 20 11 W 1021,1 0,0
18.01.2019 09:00:00 10,2 3,0 14 8 25 13 W 1020,9 0,0
18.01.2019 08:00:00 9,8 3,3 9 5 23 13 WNW 1020,3 0,0
18.01.2019 07:00:00 9,7 3,2 10 5 18 10 WNW 1019,7 -
18.01.2019 06:00:00 9,9 3,0 6 4 14 7 NW 1019,2 0,0
18.01.2019 05:00:00 10,1 2,9 9 5 15 8 NW 1019,2 0,0
18.01.2019 04:00:00 10,5 3,8 8 4 19 11 NW 1019,4 0,0
18.01.2019 03:00:00 10,4 3,9 9 5 20 11 WNW 1019,1 0,0
18.01.2019 02:00:00 10,6 3,9 11 6 20 11 W 1018,9 0,0
18.01.2019 01:00:00 10,9 3,7 9 5 19 10 WSW 1019,4 -
18.01.2019 00:00:00 11,8 3,6 4 2 19 10 W 1019,3 0,0
17.01.2019 23:00:00 12,7 3,9 6 4 18 10 W 1019,2 0,0
17.01.2019 22:00:00 13,0 4,2 10 6 21 11 WNW 1018,8 0,0
17.01.2019 21:00:00 13,3 3,9 6 4 16 8 NNW 1018,8 0,0
17.01.2019 20:00:00 13,7 4,0 5 3 14 8 NW 1018,3 0,0
17.01.2019 19:00:00 14,4 3,3 8 4 23 13 NW 1017,7 -
17.01.2019 18:00:00 15,2 3,1 8 5 25 14 NW 1017,1 0,0
17.01.2019 17:00:00 16,3 1,2 13 7 33 18 NW 1016,9 0,0
17.01.2019 16:00:00 17,3 1,7 13 7 26 14 WNW 1016,6 0,0
17.01.2019 15:00:00 17,2 1,6 15 8 31 17 NNW 1016,7 0,0
17.01.2019 14:00:00 17,5 1,9 13 7 28 15 WNW 1017,3 0,0
17.01.2019 13:00:00 17,0 3,7 8 5 29 15 NW 1018,3 -
17.01.2019 12:00:00 15,7 6,2 14 7 28 15 W 1019,1 0,0
17.01.2019 11:00:00 13,8 5,9 10 6 26 14 W 1019,3 0,0
17.01.2019 10:00:00 13,3 5,7 7 4 17 9 W 1018,8 0,0
17.01.2019 09:00:00 11,8 4,8 6 4 14 8 WNW 1018,3 0,0
17.01.2019 08:00:00 11,2 4,4 7 4 11 6 W 1018,0 0,0
17.01.2019 07:00:00 12,2 4,9 7 4 15 8 W 1017,7 -
17.01.2019 06:00:00 11,7 4,2 5 3 11 6 NNW 1017,7 0,0
17.01.2019 05:00:00 11,5 4,0 6 3 12 7 NNW 1018,1 0,0
17.01.2019 04:00:00 11,8 4,1 5 3 13 7 NNW 1018,2 0,0
17.01.2019 03:00:00 12,0 3,8 6 3 15 8 NNW 1018,6 0,0
17.01.2019 02:00:00 11,6 3,4 9 5 18 10 NNW 1019,1 0,0
17.01.2019 01:00:00 11,1 2,9 10 5 17 9 NNW 1019,6 -
17.01.2019 00:00:00 12,1 3,6 7 4 16 9 WNW 1019,9 0,0
16.01.2019 23:00:00 12,3 4,0 6 4 17 9 NW 1019,9 0,0
16.01.2019 22:00:00 12,1 3,9 9 5 18 10 NNW 1019,6 0,0
16.01.2019 21:00:00 13,5 5,2 5 3 8 4 NW 1019,5 0,0
16.01.2019 20:00:00 13,4 7,0 4 2 9 5 NNW 1019,0 0,0
16.01.2019 19:00:00 14,3 8,3 2 1 10 5 NNW 1018,6 -
16.01.2019 18:00:00 14,9 8,4 1 0 31 17 WSW 1018,3 0,0
16.01.2019 17:00:00 15,1 8,1 24 13 35 19 SSW 1018,5 0,0
16.01.2019 16:00:00 15,4 8,2 21 12 29 15 SSW 1018,7 0,0
16.01.2019 15:00:00 15,5 7,8 18 10 27 15 SSW 1019,1 0,0
16.01.2019 14:00:00 16,2 6,6 16 8 22 12 SSW 1019,9 0,0
16.01.2019 13:00:00 16,7 6,5 11 6 21 11 SW 1020,2 -
16.01.2019 12:00:00 16,1 7,9 9 5 17 9 SW 1021,7 0,0
16.01.2019 11:00:00 13,8 8,0 9 5 17 9 W 1022,2 0,0
16.01.2019 10:00:00 12,2 7,5 11 6 19 11 W 1021,8 0,0
16.01.2019 09:00:00 11,2 7,3 10 5 16 9 W 1021,6 0,0
16.01.2019 08:00:00 11,2 7,1 9 5 14 8 W 1021,4 0,0
16.01.2019 07:00:00 12,0 7,3 8 4 12 6 NNW 1021,0 -
16.01.2019 06:00:00 11,4 7,3 5 3 12 7 NNW 1021,0 0,0
16.01.2019 05:00:00 11,4 7,5 6 3 9 5 WNW 1021,3 0,0
16.01.2019 04:00:00 11,2 7,9 5 3 10 6 NW 1021,8 0,0
16.01.2019 03:00:00 11,5 7,4 8 5 16 9 NW 1022,0 0,0
16.01.2019 02:00:00 11,8 7,5 10 6 18 10 NW 1022,1 0,0
16.01.2019 01:00:00 11,6 7,5 7 4 22 12 N 1022,4 -
16.01.2019 00:00:00 11,7 7,6 11 6 17 9 N 1022,9 0,0
15.01.2019 23:00:00 12,0 8,1 8 5 16 9 NNW 1022,8 0,0
15.01.2019 22:00:00 12,2 8,7 8 4 15 8 NNW 1022,5 0,0
15.01.2019 21:00:00 12,5 9,2 8 4 13 7 NNW 1022,3 0,0
15.01.2019 20:00:00 13,4 9,8 4 2 9 5 N 1022,1 0,0
15.01.2019 19:00:00 14,5 10,7 3 2 5 3 ESE 1021,8 -
15.01.2019 18:00:00 14,8 10,2 2 1 5 3 ESE 1021,4 0,0
15.01.2019 17:00:00 15,2 10,0 4 2 8 4 E 1021,4 0,0

tt = Température de l'air
td = dewpoint
ff = Vitesse du vent
fx = gusts
dd = Direction du vent
ppp = reduced air pressure
rr = Quantités de précipitations

stations d'obs. à proximité